Reno (UNR), Valley Road, Nevada Weather observations

Data are for observation ending at time listed.
 Day   Time    Ave.   Ave.  Ave.  Vector   Max.    Total    Solar   Rl      Baro.   Ave.  
  of    of     Air    Rel.  Wind   Wind    Wind   Precip.   Rad.    in      Pres.   Soil  
Year   Day     Temp.  Hum.  Speed  Dir.    Gust                                     Temp. 
2016   (PST)    F      %     mph   deg.    mph      in.     W/m2    W/m2     mb.     F   
-----------------------------------------------------------------------------------------
 177   21:50   74.5    30    3.7   291      6.5     0.00       0     364    855.7   81.5
 177   22:00   74.1    31    3.2   305      5.2     0.00       0     363    855.8   81.3
 177   22:10   73.4    32    3.7   313      6.4     0.00       0     361    856.0   81.2
 177   22:20   72.9    32    3.8   306      5.2     0.00       0     360    856.1   81.0
 177   22:30   72.3    33    2.0   272      4.1     0.00       0     359    856.2   80.9
 177   22:40   71.9    33    0.5   328      2.5     0.00       0     359    856.4   80.7
 177   22:50   69.7    37    0.7   344      2.4     0.00       0     354    856.6   80.5
 177   23:00   68.2    39    0.4   179      2.7     0.00       0     356    856.8   80.4
 177   23:10   68.3    40    0.7   203      3.1     0.00       0     354    856.9   80.3
 177   23:20   68.6    39    2.1   228      3.8     0.00       0     350    857.1   80.1
 177   23:30   67.8    41    3.3   308      4.9     0.00       0     347    857.1   80.0
 177   23:40   66.8    44    4.0   306      5.3     0.00       0     346    857.1   79.8
 177   23:50   66.9    43    3.2   280      6.0     0.00       0     346    857.2   79.6
 178    0:00   67.3    42    3.5   295      6.4     0.00       0     345    857.3   79.5
 178    0:10   67.0    42    3.0   276      4.9     0.00       0     345    857.3   79.4
 178    0:20   66.7    42    3.4   286      5.6     0.00       0     344    857.3   79.2
 178    0:30   66.3    42    3.3   257      5.1     0.00       0     344    857.4   79.1
 178    0:40   66.0    42    2.6   251      4.3     0.00       0     341    857.3   78.9
 178    0:50   65.2    42    3.3   238      4.8     0.00       0     340    857.5   78.8
 178    1:00   65.2    41    3.7   240      5.4     0.00       0     342    857.5   78.6
 178    1:10   65.2    41    1.9   265      5.9     0.00       0     341    857.6   78.5
 178    1:20   62.9    46    1.8    16      2.7     0.00       0     341    857.7   78.3
 178    1:30   62.3    47    1.1   357      2.7     0.00       0     338    857.7   78.2
 178    1:40   61.3    48    0.3   329      2.3     0.00       0     334    857.8   78.1
 178    1:50   60.4    50    0.0   322      1.3     0.00       0     335    858.0   77.9
 178    2:00   60.3    51    1.6   333      3.0     0.00       0     330    858.1   77.8
 178    2:10   59.6    52    0.5   316      2.0     0.00       0     331    858.2   77.6
 178    2:20   59.3    53    0.6   323      2.3     0.00       0     326    858.3   77.5
 178    2:30   58.9    56    1.4   341      2.8     0.00       0     324    858.4   77.4
 178    2:40   58.5    56    0.5   305      1.7     0.00       0     325    858.5   77.2
 178    2:50   58.1    57    0.4   309      1.8     0.00       0     327    858.7   77.1
 178    3:00   58.2    57    2.5   315      4.1     0.00       0     321    858.8   77.0
 178    3:10   58.4    56    2.2   295      3.1     0.00       0     323    858.9   76.8
 178    3:20   59.2    54    2.4   288      4.5     0.00       0     324    859.0   76.7
 178    3:30   57.7    56    0.6   310      2.4     0.00       0     321    859.0   76.6
 178    3:40   56.9    57    0.7   316      1.9     0.00       0     318    859.1   76.4
 178    3:50   56.8    57    1.2   316      3.0     0.00       0     317    859.2   76.3
 178    4:00   57.2    57    2.8   256      5.2     0.00       0     318    859.3   76.1
 178    4:10   58.2    56    1.2   260      3.9     0.00       0     320    859.4   76.0
 178    4:20   56.7    58    1.2   339      2.6     0.00       1     317    859.5   75.9
 178    4:30   56.2    59    1.5   290      2.7     0.00       2     316    859.7   75.7
 178    4:40   55.6    60    0.9   338      2.5     0.00       5     316    859.7   75.6
 178    4:50   55.0    62    2.3   315      3.1     0.00      11     313    859.8   75.5
 178    5:00   55.8    60    2.6   314      3.3     0.00      29     317    859.8   75.3
 178    5:10   57.8    56    1.4   285      4.0     0.00      53     316    859.8   75.2
 178    5:20   59.7    53    2.8   253      5.0     0.00      83     321    859.7   75.1
 178    5:30   60.7    52    2.5   261      3.9     0.00     117     322    859.5   74.9
 178    5:40   61.9    50    2.0   269      3.7     0.00     146     325    859.2   74.8
 178    5:50   63.9    50    0.4   296      1.7     0.00     174     328    859.1   74.7
 178    6:00   65.3    47    1.7   262      3.0     0.00     203     328    858.8   74.6
 178    6:10   64.7    46    2.2   256      3.5     0.00     236     333    858.6   74.5
 178    6:20   65.9    45    1.2   247      2.9     0.00     269     335    858.5   74.4
 178    6:30   69.3    41    0.4    57      1.9     0.00     300     340    858.4   74.3
 178    6:40   70.7    37    0.3    96      2.5     0.00     333     343    858.2   74.2
 178    6:50   71.8    36    0.9   307      3.4     0.00     366     349    858.0   74.2
 178    7:00   70.7    37    0.7   271      2.5     0.00     400     349    858.0   74.2
 178    7:10   71.8    37    1.6    28      3.0     0.00     436     352    857.9   74.2
 178    7:20   72.0    36    1.4    53      2.7     0.00     469     354    857.7   74.2
 178    7:30   73.2    34    1.1    31      2.5     0.00     502     358    857.6   74.2
 178    7:40   75.5    31    0.7    77      2.5     0.00     532     361    857.4   74.2
 178    7:50   76.7    30    0.7    50      2.2     0.00     565     364    857.3   74.3
 178    8:00   77.5    29    1.0    11      2.5     0.00     598     368    857.2   74.4
 178    8:10   77.7    29    1.4    62      2.8     0.00     631     371    857.0   74.5
 178    8:20   78.6    28    1.6    19      3.5     0.00     660     374    856.8   74.6
 178    8:30   79.6    26    1.1   157      3.1     0.00     690     375    856.6   74.8
 178    8:40   82.3    24    0.9    59      4.2     0.00     722     379    856.4   74.9
 178    8:50   81.3    25    2.5    92      4.9     0.00     749     382    856.2   75.1
 178    9:00   80.3    24    2.2   137      4.8     0.00     777     382    856.0   75.3
 178    9:10   81.7    23    2.3   123      4.5     0.00     804     383    855.8   75.5
 178    9:20   82.8    23    1.7    49      3.6     0.00     830     384    855.7   75.8
 178    9:30   83.3    23    2.1    54      5.2     0.00     855     389    855.5   76.0
 178    9:40   83.1    21    2.6    28      5.2     0.00     879     390    855.4   76.2
 178    9:50   84.2    18    2.2    77      4.0     0.00     896     391    855.2   76.5
 178   10:00   85.0    18    1.8    11      3.3     0.00     917     393    855.0   76.7
 178   10:10   86.3    18    2.3   333      4.1     0.00     935     396    854.7   76.9
 178   10:20   84.8    16    2.7    21      4.6     0.00     954     398    854.5   77.1
 178   10:30   87.1    14    2.3   285      4.7     0.00     967     399    854.3   77.3
 178   10:40   85.7    18    3.7    29      6.2     0.00     984     401    854.1   77.5
 178   10:50   86.1    15    3.1    50      6.2     0.00     997     400    853.8   77.7
 178   11:00   89.3    12    2.1   119      4.8     0.00    1010     403    853.7   78.0
 178   11:10   89.7    12    4.0   188      7.8     0.00    1020     404    853.5   78.2
 178   11:20   90.3    12    3.7   147     10.3     0.00    1029     408    853.4   78.5
 178   11:30   89.7    13    4.0   138      9.9     0.00    1034     407    853.3   78.7
 178   11:40   89.9    13    4.2   218     10.6     0.00    1040     412    853.1   79.0
 178   11:50   89.5    13    4.7   288      8.5     0.00    1041     412    852.9   79.3
 178   12:00   89.4    13    4.6   266      8.3     0.00    1043     413    852.8   79.6
 178   12:10   90.0    13    5.0   278      9.2     0.00    1051     416    852.7   80.0
 178   12:20   89.9    15    3.5   329      6.9     0.00     997     415    852.5   80.3
 178   12:30   90.3    14    2.8     5      6.0     0.00     941     415    852.4   80.6
 178   12:40   92.0    14    5.6   233     11.5     0.00     986     422    852.2   80.9
 178   12:50   91.8    13    4.1   268     10.8     0.00    1022     418    852.0   81.2
 178   13:00   92.1    12    4.3   250     10.4     0.00    1023     419    852.0   81.5
 178   13:10   92.6    13    2.8   308      8.4     0.00    1014     418    851.8   81.8
 178   13:20   93.7    12    4.5   244     11.2     0.00    1003     422    851.7   82.0
 178   13:30   92.7    14    3.6   301      8.3     0.00     981     419    851.5   82.2
 178   13:40   92.5    13    4.0   311      8.8     0.00     911     423    851.3   82.4
 178   13:50   93.4    12    4.3   261      9.9     0.00     946     420    851.2   82.6
 178   14:00   93.6    12    4.7   312     11.8     0.00     950     421    851.0   82.7
 178   14:10   93.7    11    6.0   253     15.3     0.00     928     418    850.8   82.9
 178   14:20   94.2    10    7.8   269     13.9     0.00     913     416    850.7   83.0
 178   14:30   93.2    10    7.3   279     15.8     0.00     894     415    850.7   83.2
 178   14:40   93.7    10    7.8   277     16.5     0.00     872     415    850.6   83.4
 178   14:50   93.2    11    8.3   281     17.0     0.00     845     414    850.6   83.5
 178   15:00   92.5    12    8.8   303     17.5     0.00     825     414    850.6   83.7
 178   15:10   92.3    12    8.9   292     16.1     0.00     798     410    850.5   83.9
 178   15:20   94.0    11    9.0   260     18.0     0.00     772     416    850.5   84.0
 178   15:30   93.4    11    9.5   257     17.2     0.00     745     415    850.5   84.2
 178   15:40   93.0    11   10.9   260     20.6     0.00     719     411    850.5   84.3
 178   15:50   92.3    11   10.8   275     18.9     0.00     688     408    850.5   84.5
 178   16:00   92.6    11    9.6   272     19.0     0.00     656     409    850.6   84.6
 178   16:10   92.5    11    9.1   278     16.0     0.00     627     409    850.7   84.7
 178   16:20   92.4    11    8.7   269     15.4     0.00     596     406    850.7   84.8
 178   16:30   92.1    11    9.5   281     15.9     0.00     565     406    850.8   84.9
 178   16:40   91.6    10    9.8   280     18.8     0.00     533     404    850.8   85.0
 178   16:50   91.5    11    9.0   266     17.1     0.00     501     403    851.0   85.1
 178   17:00   91.1    11    9.6   272     16.4     0.00     468     399    851.1   85.2
 178   17:10   91.0    11    8.9   274     18.8     0.00     437     400    851.2   85.2
 178   17:20   90.5    10   11.1   274     22.2     0.00     403     395    851.3   85.3
 178   17:30   90.0    11    9.7   272     20.6     0.00     364     394    851.4   85.3
 178   17:40   89.8    11   10.7   260     19.3     0.00     339     391    851.5   85.3
 178   17:50   89.0    11   10.9   274     19.2     0.00     239     390    851.6   85.3
 178   18:00   88.1    12    9.9   268     19.4     0.00     147     386    851.7   85.3
 178   18:10   87.2    12    8.9   265     17.2     0.00     151     380    852.0   85.3
 178   18:20   87.5    12    8.9   265     16.8     0.00     212     383    852.1   85.3
 178   18:30   87.2    13    9.1   268     17.1     0.00     179     384    852.2   85.3
 178   18:40   86.8    14    8.0   271     17.8     0.00     148     380    852.4   85.2
 178   18:50   86.2    14    7.3   280     15.2     0.00     119     380    852.6   85.1
 178   19:00   85.4    15    7.1   274     13.3     0.00      57     381    852.8   85.0
 178   19:10   84.0    16    5.1   281     11.4     0.00      18     378    853.0   85.0
 178   19:20   83.0    16    5.2   293     10.3     0.00      14     374    853.5   84.9
 178   19:30   81.5    17    5.1   309      9.2     0.00       9     374    853.8   84.8
 178   19:40   81.0    19    4.8   303      8.8     0.00       4     374    854.2   84.6
 178   19:50   80.2    21    4.3   298      8.3     0.00       1     372    854.5   84.5
 178   20:00   79.7    22    2.4   276      4.8     0.00       0     372    854.8   84.4
 178   20:10   78.9    23    3.1   283      7.3     0.00       0     369    855.2   84.3
 178   20:20   78.6    23    3.1   268      5.3     0.00       0     370    855.6   84.1
 178   20:30   78.2    23    3.5   288      7.8     0.00       0     367    855.9   83.9
 178   20:40   77.5    24    4.1   273      7.4     0.00       0     363    856.1   83.8
 178   20:50   77.4    24    5.4   293      9.0     0.00       0     359    856.4   83.6
 178   21:00   76.8    24    7.0   292     13.2     0.00       0     359    856.6   83.5
 178   21:10   77.5    23    7.6   280     13.2     0.00       0     362    856.7   83.3
 178   21:20   77.8    22    7.9   280     13.9     0.00       0     362    856.7   83.2
 178   21:30   77.3    23    6.9   277     12.1     0.00       0     362    856.8   83.0
 178   21:40   76.2    24    6.5   308      9.9     0.00       0     359    857.0   82.8

Return to Reno (UNR), Nevada graphs page.


Western Regional Climate Center,wrcc@dri.edu